Time;durP1;ratioP1;P1;durP2;ratioP2;P2;SDS_P1;SDS_P2;PMS_P1;PMS_P2;Temp;Humidity;BMP_temperature;BMP_pressure;BME280_temperature;BME280_humidity;BME280_pressure;Samples;Min_cycle;Max_cycle;Signal;HPM_P1;HPM_P2
2023/10/12 00:00:24;;;;;;;11.85;2.38;;;;;;;;;;5069168;28;20126;-75
2023/10/12 00:02:48;;;;;;;14.23;2.53;;;;;;;;;;5052220;28;20037;-75
2023/10/12 00:05:18;;;;;;;13.52;2.25;;;;;;;;;;5053753;28;20487;-75
2023/10/12 00:07:45;;;;;;;9.13;2.72;;;;;;;;;;5062160;28;20045;-75
2023/10/12 00:12:46;;;;;;;11.45;2.72;;;13.90;99.90;;;;;;5073152;28;20123;-75
2023/10/12 00:15:25;;;;;;;11.80;2.00;;;;;;;;;;5057900;28;20040;-75
2023/10/12 00:17:57;;;;;;;10.23;2.35;;;14.20;99.90;;;;;;5041256;28;20047;-75
2023/10/12 00:20:34;;;;;;;;;;;14.20;99.90;;;;;;5073292;28;20032;-75
2023/10/12 00:23:14;;;;;;;10.50;2.05;;;14.00;99.90;;;;;;5039875;28;19920;-75
2023/10/12 00:25:45;;;;;;;16.73;2.15;;;;;;;;;;5061001;28;20033;-75
2023/10/12 00:28:17;;;;;;;14.95;2.55;;;;;;;;;;5054653;28;20487;-75
2023/10/12 00:30:43;;;;;;;10.52;1.80;;;14.20;99.90;;;;;;5052319;28;20170;-75
2023/10/12 00:33:10;;;;;;;10.00;1.95;;;;;;;;;;5054470;28;20044;-75
2023/10/12 00:35:39;;;;;;;10.32;1.98;;;;;;;;;;5047161;28;20079;-75
2023/10/12 00:38:39;;;;;;;9.93;1.90;;;;;;;;;;5052114;28;20091;-75
2023/10/12 00:41:03;;;;;;;7.00;1.52;;;13.80;99.90;;;;;;5042244;28;20384;-75
2023/10/12 00:43:38;;;;;;;9.57;1.77;;;;;;;;;;5071253;28;20080;-75
2023/10/12 00:51:37;;;;;;;9.02;2.47;;;;;;;;;;5069574;28;20048;-75
2023/10/12 00:54:04;;;;;;;8.25;1.50;;;;;;;;;;5055482;28;20037;-75
2023/10/12 00:56:30;;;;;;;6.63;1.58;;;;;;;;;;5068247;28;20080;-75
2023/10/12 00:58:57;;;;;;;8.48;1.85;;;;;;;;;;5062341;28;20138;-75
2023/10/12 01:01:24;;;;;;;7.10;1.58;;;;;;;;;;5053989;28;20037;-75
2023/10/12 01:03:50;;;;;;;10.27;1.67;;;13.70;99.90;;;;;;5040623;28;20037;-75
2023/10/12 01:08:43;;;;;;;5.93;1.42;;;;;;;;;;5063792;28;20097;-75
2023/10/12 01:11:20;;;;;;;9.20;1.88;;;14.20;99.90;;;;;;5071979;28;20135;-75
2023/10/12 01:14:11;;;;;;;8.27;1.75;;;13.70;99.90;;;;;;5062963;28;20079;-75
2023/10/12 01:19:10;;;;;;;11.80;2.20;;;;;;;;;;5064189;28;20047;-75
2023/10/12 01:21:36;;;;;;;9.90;1.90;;;;;;;;;;5062609;28;20124;-75
2023/10/12 01:24:11;;;;;;;12.82;1.92;;;;;;;;;;5067196;28;20438;-75
2023/10/12 01:26:37;;;;;;;8.48;1.70;;;;;;;;;;5066002;28;20044;-75
2023/10/12 01:29:03;;;;;;;10.82;1.88;;;;;;;;;;5071731;28;20043;-75
2023/10/12 01:31:30;;;;;;;12.30;2.15;;;;;;;;;;5067643;28;20115;-75
2023/10/12 01:33:57;;;;;;;9.30;1.42;;;;;;;;;;5061744;28;20052;-75
2023/10/12 01:36:30;;;;;;;7.57;2.30;;;;;;;;;;5045509;28;20439;-75
2023/10/12 01:39:12;;;;;;;;;;;13.70;99.90;;;;;;5056547;28;20166;-75
2023/10/12 01:41:42;;;;;;;11.23;1.77;;;;;;;;;;5053659;28;20296;-75
2023/10/12 01:44:12;;;;;;;7.78;1.63;;;14.50;99.90;;;;;;5071101;28;20044;-75
2023/10/12 01:46:41;;;;;;;9.65;1.80;;;;;;;;;;5071356;28;20279;-75
2023/10/12 01:49:11;;;;;;;10.13;1.80;;;;;;;;;;5071216;28;20040;-75
2023/10/12 01:51:42;;;;;;;14.60;1.83;;;;;;;;;;5071083;28;20420;-75
2023/10/12 01:54:12;;;;;;;13.35;2.25;;;;;;;;;;5055821;28;20049;-75
2023/10/12 01:56:38;;;;;;;9.90;1.73;;;;;;;;;;5053178;28;20032;-75
2023/10/12 01:59:07;;;;;;;10.27;1.50;;;;;;;;;;5059656;28;20036;-75
2023/10/12 02:01:34;;;;;;;8.93;2.42;;;13.60;99.90;;;;;;5063188;28;20040;-75
2023/10/12 02:04:04;;;;;;;8.65;1.75;;;13.50;99.90;;;;;;5062869;28;20072;-75
2023/10/12 02:06:30;;;;;;;8.82;1.80;;;;;;;;;;5071065;28;20098;-75
2023/10/12 02:09:08;;;;;;;6.93;1.25;;;;;;;;;;5064131;28;20036;-75
2023/10/12 02:11:44;;;;;;;9.48;1.80;;;;;;;;;;5054028;28;20397;-75
2023/10/12 02:14:21;;;;;;;7.93;1.52;;;12.80;99.90;;;;;;5052726;28;20048;-75
2023/10/12 02:16:53;;;;;;;9.70;1.90;;;;;;;;;;5062290;28;20543;-74
2023/10/12 02:19:31;;;;;;;10.65;1.80;;;;;;;;;;5070640;28;20174;-74
2023/10/12 02:22:01;;;;;;;10.70;2.40;;;13.80;99.90;;;;;;5053758;28;20489;-75
2023/10/12 02:24:27;;;;;;;9.07;1.80;;;;;;;;;;5036558;28;20362;-75
2023/10/12 02:26:54;;;;;;;9.88;2.17;;;;;;;;;;5054522;28;20039;-74
2023/10/12 02:29:21;;;;;;;10.73;1.90;;;;;;;;;;5053275;28;20044;-74
2023/10/12 02:34:26;;;;;;;13.27;2.15;;;13.60;99.90;;;;;;5070435;28;20037;-74
2023/10/12 02:39:42;;;;;;;8.30;2.13;;;13.50;99.90;;;;;;5070359;28;20426;-74
2023/10/12 02:47:22;;;;;;;9.88;2.10;;;;;;;;;;5052157;28;20037;-74
2023/10/12 02:49:48;;;;;;;11.75;2.20;;;;;;;;;;5054252;28;20373;-74
2023/10/12 02:52:20;;;;;;;12.95;2.20;;;14.50;99.90;;;;;;5037805;28;20389;-75
2023/10/12 02:54:50;;;;;;;9.30;2.55;;;;;;;;;;5069950;28;20051;-74
2023/10/12 02:57:25;;;;;;;7.25;2.40;;;;;;;;;;5052084;28;20361;-75
2023/10/12 03:00:14;;;;;;;7.53;2.17;;;13.30;99.90;;;;;;5052337;28;20067;-74
2023/10/12 03:02:44;;;;;;;9.43;2.33;;;;;;;;;;5062304;28;20124;-74
2023/10/12 03:05:17;;;;;;;9.43;2.03;;;;;;;;;;5052456;28;20488;-75
2023/10/12 03:07:44;;;;;;;11.63;1.80;;;;;;;;;;5052788;28;20048;-75
2023/10/12 03:10:25;;;;;;;10.43;2.45;;;13.30;99.90;;;;;;5051567;28;20033;-75
2023/10/12 03:12:55;;;;;;;9.85;2.10;;;;;;;;;;5064274;28;20485;-75
2023/10/12 03:15:31;;;;;;;8.90;1.88;;;;;;;;;;5051455;28;20080;-75
2023/10/12 03:17:58;;;;;;;9.48;2.40;;;;;;;;;;5066119;28;20130;-75
2023/10/12 03:20:28;;;;;;;7.22;1.67;;;;;;;;;;5067417;28;20120;-75
2023/10/12 03:22:59;;;;;;;13.15;2.00;;;;;;;;;;5041181;28;20083;-75
2023/10/12 03:25:43;;;;;;;4.70;1.95;;;;;;;;;;5058796;28;20043;-76
2023/10/12 03:28:13;;;;;;;8.98;1.55;;;;;;;;;;5040217;28;20071;-75
2023/10/12 03:30:53;;;;;;;11.25;1.65;;;13.20;99.90;;;;;;5051597;28;20394;-75
2023/10/12 03:33:19;;;;;;;11.45;1.73;;;;;;;;;;5037662;28;20106;-75
2023/10/12 03:36:02;;;;;;;11.45;2.45;;;;;;;;;;5057377;28;20060;-76
2023/10/12 03:38:33;;;;;;;6.47;1.50;;;;;;;;;;5064317;28;20098;-75
2023/10/12 03:43:48;;;;;;;5.65;1.38;;;;;;;;;;5066910;28;20190;-75
2023/10/12 03:46:26;;;;;;;8.50;2.13;;;;;;;;;;5066642;28;20033;-75
2023/10/12 03:49:10;;;;;;;8.45;2.10;;;;;;;;;;5065584;28;20040;-75
2023/10/12 03:51:41;;;;;;;5.65;1.45;;;;;;;;;;5039792;28;20070;-75
2023/10/12 03:56:54;;;;;;;6.40;1.67;;;;;;;;;;5046825;28;20056;-75
2023/10/12 03:59:31;;;;;;;12.77;1.48;;;;;;;;;;5051086;28;20045;-75
2023/10/12 04:02:00;;;;;;;5.28;1.50;;;;;;;;;;5049394;28;20071;-75
2023/10/12 04:04:34;;;;;;;8.05;1.55;;;;;;;;;;5063402;28;20053;-70
2023/10/12 04:09:43;;;;;;;10.80;1.83;;;;;;;;;;5052662;28;20041;-69
2023/10/12 04:14:49;;;;;;;7.65;1.83;;;;;;;;;;5050729;28;20086;-69
2023/10/12 04:18:06;;;;;;;7.35;1.48;;;;;;;;;;5053383;28;20040;-70
2023/10/12 04:23:04;;;;;;;8.15;2.50;;;;;;;;;;5061330;28;20051;-70
2023/10/12 04:28:16;;;;;;;6.53;2.15;;;;;;;;;;5055487;28;20044;-70
2023/10/12 04:33:17;;;;;;;8.77;1.50;;;;;;;;;;5055507;28;20116;-69
2023/10/12 04:38:30;;;;;;;5.38;1.83;;;;;;;;;;5065502;28;20040;-69
2023/10/12 04:43:52;;;;;;;6.45;1.30;;;;;;;;;;5060979;28;20049;-69
2023/10/12 04:51:39;;;;;;;8.43;2.20;;;;;;;;;;5068560;28;20131;-69
2023/10/12 04:54:15;;;;;;;9.70;1.77;;;;;;;;;;5059937;28;20044;-69
2023/10/12 04:56:57;;;;;;;6.38;1.48;;;;;;;;;;5041066;28;20365;-69
2023/10/12 04:59:42;;;;;;;3.83;1.40;;;;;;;;;;5051659;28;20076;-69
2023/10/12 05:09:50;;;;;;;4.13;1.42;;;;;;;;;;5062475;28;20048;-69
2023/10/12 05:12:16;;;;;;;;;;;12.60;99.90;;;;;;5055412;28;20032;-69
2023/10/12 05:14:42;;;;;;;6.75;1.75;;;;;;;;;;5038346;28;19917;-69
2023/10/12 05:17:09;;;;;;;4.85;1.40;;;12.60;99.90;;;;;;5053849;28;20123;-69
2023/10/12 05:19:35;;;;;;;4.88;1.40;;;;;;;;;;5063424;28;20106;-69
2023/10/12 05:22:01;;;;;;;4.28;1.40;;;;;;;;;;5042954;28;20040;-69
2023/10/12 05:24:27;;;;;;;6.47;1.58;;;;;;;;;;5065629;28;20040;-69
2023/10/12 05:27:05;;;;;;;4.55;1.40;;;;;;;;;;5071627;28;20495;-69
2023/10/12 05:29:38;;;;;;;4.95;1.40;;;;;;;;;;5059800;28;20037;-69
2023/10/12 05:33:06;;;;;;;6.63;1.67;;;;;;;;;;5062985;28;20052;-69
2023/10/12 05:35:02;;;;;;;9.75;1.77;;;;;;;;;;5055208;28;20761;-69
2023/10/12 05:37:37;;;;;;;5.78;1.40;;;;;;;;;;5071784;28;20044;-69
2023/10/12 05:40:09;;;;;;;4.43;1.90;;;;;;;;;;5065217;28;20049;-68
2023/10/12 05:42:39;;;;;;;10.82;1.92;;;;;;;;;;5064217;28;20102;-69
2023/10/12 05:45:18;;;;;;;7.13;1.83;;;;;;;;;;5059185;28;20099;-68
2023/10/12 05:47:46;;;;;;;5.80;1.60;;;;;;;;;;5040120;28;20044;-69
2023/10/12 05:50:15;;;;;;;6.00;2.00;;;;;;;;;;5059549;28;20068;-68
2023/10/12 05:52:47;;;;;;;7.47;1.48;;;;;;;;;;5054310;28;20044;-69
2023/10/12 05:55:21;;;;;;;5.72;1.52;;;;;;;;;;5058520;28;20145;-68
2023/10/12 05:57:50;;;;;;;8.20;1.73;;;;;;;;;;5054008;28;20037;-69
2023/10/12 06:00:41;;;;;;;4.72;1.60;;;;;;;;;;5046851;28;20333;-69
2023/10/12 06:03:05;;;;;;;5.60;1.60;;;;;;;;;;5052507;28;20091;-69
2023/10/12 06:05:31;;;;;;;4.85;1.80;;;;;;;;;;5037670;28;20151;-69
2023/10/12 06:08:00;;;;;;;9.88;2.03;;;;;;;;;;5052952;28;20040;-69
2023/10/12 06:10:29;;;;;;;7.72;1.67;;;;;;;;;;5057557;28;20102;-69
2023/10/12 06:12:56;;;;;;;8.20;1.98;;;;;;;;;;5062822;28;20134;-68
2023/10/12 06:15:25;;;;;;;6.05;1.55;;;;;;;;;;5059932;28;20037;-69
2023/10/12 06:17:55;;;;;;;9.38;2.05;;;;;;;;;;5063194;28;20036;-67
2023/10/12 06:23:13;;;;;;;6.68;1.60;;;12.10;99.90;;;;;;5054259;28;20037;-68
2023/10/12 06:25:43;;;;;;;7.35;1.75;;;;;;;;;;5046313;28;20040;-69
2023/10/12 06:28:17;;;;;;;7.47;1.92;;;;;;;;;;5058871;28;20057;-69
2023/10/12 06:30:47;;;;;;;9.60;1.88;;;;;;;;;;5057426;28;20049;-69
2023/10/12 06:33:15;;;;;;;4.03;1.70;;;11.90;99.90;;;;;;5053844;28;20043;-69
2023/10/12 06:36:05;;;;;;;7.75;1.77;;;;;;;;;;5061239;28;20036;-68
2023/10/12 06:41:58;;;;;;;5.50;2.00;;;;;;;;;;5065549;28;20040;-68
2023/10/12 06:46:50;;;;;;;6.95;1.60;;;;;;;;;;5069385;28;20082;-69
2023/10/12 06:49:29;;;;;;;6.25;1.77;;;12.20;99.90;;;;;;5043318;28;20049;-69
2023/10/12 06:52:01;;;;;;;11.27;2.90;;;;;;;;;;5040437;28;20124;-69
2023/10/12 07:02:42;;;;;;;10.82;3.15;;;;;;;;;;5042272;28;20048;-69
2023/10/12 07:05:09;;;;;;;10.65;2.65;;;;;;;;;;5037599;28;20053;-70
2023/10/12 07:07:41;;;;;;;15.00;2.47;;;;;;;;;;5038436;28;20076;-69
2023/10/12 07:12:42;;;;;;;7.13;2.20;;;;;;;;;;5051644;28;20048;-69
2023/10/12 07:15:12;;;;;;;9.00;2.42;;;;;;;;;;5051665;28;20041;-70
2023/10/12 07:17:44;;;;;;;9.05;1.95;;;;;;;;;;5049722;28;20048;-70
2023/10/12 07:20:25;;;;;;;14.60;2.77;;;;;;;;;;5035153;28;20492;-70
2023/10/12 07:22:51;;;;;;;10.83;2.40;;;;;;;;;;5068195;28;20298;-71
2023/10/12 07:25:22;;;;;;;7.90;2.28;;;;;;;;;;5066866;28;20499;-71
2023/10/12 07:28:15;;;;;;;9.55;2.40;;;;;;;;;;5058584;28;20094;-71
2023/10/12 07:30:42;;;;;;;11.73;2.55;;;;;;;;;;5056585;28;20037;-71
2023/10/12 07:33:12;;;;;;;11.00;2.80;;;;;;;;;;5057361;28;20045;-71
2023/10/12 07:35:38;;;;;;;17.80;2.80;;;;;;;;;;5041844;28;20051;-71
2023/10/12 07:38:35;;;;;;;8.68;2.47;;;;;;;;;;5057049;28;20063;-71
2023/10/12 07:41:01;;;;;;;10.07;2.72;;;;;;;;;;5057150;28;20128;-71
2023/10/12 07:43:31;;;;;;;14.00;2.75;;;;;;;;;;5040909;28;20045;-74
2023/10/12 07:46:09;;;;;;;15.73;3.33;;;;;;;;;;5044022;28;20037;-84
2023/10/12 07:48:45;;;;;;;17.00;4.95;;;;;;;;;;5043001;28;20071;-81
2023/10/12 07:51:15;;;;;;;20.98;4.65;;;;;;;;;;5074791;28;20036;-84
2023/10/12 07:53:42;;;;;;;15.63;4.75;;;;;;;;;;5059274;28;20147;-82
2023/10/12 07:56:15;;;;;;;14.45;3.40;;;;;;;;;;5065812;28;20051;-85
2023/10/12 07:58:50;;;;;;;13.35;2.88;;;13.40;99.90;;;;;;5035133;28;20386;-70
2023/10/12 08:01:22;;;;;;;9.55;2.50;;;;;;;;;;5051335;28;20441;-70
2023/10/12 08:03:52;;;;;;;9.55;2.85;;;;;;;;;;5053000;28;20123;-70
2023/10/12 08:06:28;;;;;;;7.95;2.33;;;;;;;;;;5061982;28;20097;-69
2023/10/12 08:09:05;;;;;;;9.45;2.78;;;;;;;;;;5067134;28;20037;-70
2023/10/12 08:11:34;;;;;;;8.93;2.30;;;;;;;;;;5060413;28;20049;-70
2023/10/12 08:17:24;;;;;;;7.53;2.03;;;;;;;;;;5067992;28;20123;-70
2023/10/12 08:19:39;;;;;;;10.02;2.35;;;;;;;;;;5055997;28;20047;-69
2023/10/12 08:22:09;;;;;;;7.82;1.95;;;;;;;;;;5061099;28;20373;-69
2023/10/12 08:24:36;;;;;;;12.35;1.90;;;;;;;;;;5035347;28;20120;-70
2023/10/12 08:27:06;;;;;;;14.13;2.30;;;;;;;;;;5071475;28;20085;-69
2023/10/12 08:39:37;;;;;;;8.63;2.58;;;;;;;;;;5058436;28;19921;-77
2023/10/12 08:44:59;;;;;;;10.88;2.40;;;;;;;;;;5061176;28;20045;-77
2023/10/12 08:50:04;;;;;;;20.45;2.90;;;13.70;99.90;;;;;;5060181;28;20130;-77
2023/10/12 08:52:33;;;;;;;8.02;2.20;;;;;;;;;;5064706;28;20041;-78
2023/10/12 08:58:01;;;;;;;11.98;3.00;;;;;;;;;;5063298;28;20048;-77
2023/10/12 09:03:00;;;;;;;8.77;2.33;;;;;;;;;;5064392;28;20395;-77
2023/10/12 09:05:28;;;;;;;10.95;2.08;;;13.90;99.90;;;;;;5056275;28;20045;-76
2023/10/12 09:13:27;;;;;;;10.60;2.67;;;14.20;99.90;;;;;;5063588;28;20494;-81
2023/10/12 09:15:57;;;;;;;7.65;2.03;;;14.10;99.90;;;;;;5063747;28;20091;-81
2023/10/12 09:18:29;;;;;;;6.63;1.50;;;14.30;99.90;;;;;;5067517;28;20083;-81
2023/10/12 09:23:31;;;;;;;13.70;2.13;;;14.00;99.90;;;;;;5059916;28;20128;-70
2023/10/12 09:28:43;;;;;;;11.93;1.63;;;;;;;;;;5056042;28;20055;-70
2023/10/12 09:31:09;;;;;;;13.50;1.90;;;;;;;;;;5058619;28;20045;-71
2023/10/12 09:33:54;;;;;;;9.68;1.83;;;;;;;;;;5060954;28;20508;-71
2023/10/12 09:36:22;;;;;;;6.03;1.30;;;;;;;;;;5066830;28;20075;-71
2023/10/12 09:38:48;;;;;;;5.18;2.15;;;;;;;;;;5062756;28;20080;-70
2023/10/12 09:41:16;;;;;;;14.20;2.72;;;;;;;;;;5061128;28;20392;-70
2023/10/12 09:43:45;;;;;;;7.43;1.83;;;;;;;;;;5059996;28;20060;-70
2023/10/12 09:46:17;;;;;;;11.80;2.25;;;14.40;99.90;;;;;;5062685;28;20041;-70
2023/10/12 09:48:44;;;;;;;6.65;1.67;;;;;;;;;;5063457;28;20040;-70
2023/10/12 09:51:17;;;;;;;13.10;2.67;;;;;;;;;;5067193;28;20110;-70
2023/10/12 09:53:59;;;;;;;8.88;2.25;;;;;;;;;;5040957;28;20052;-70
2023/10/12 09:56:45;;;;;;;8.55;2.22;;;14.40;99.90;;;;;;5066725;28;20145;-70
2023/10/12 09:59:18;;;;;;;5.70;1.23;;;;;;;;;;5062258;28;20083;-70
2023/10/12 10:01:50;;;;;;;8.43;2.00;;;;;;;;;;5048020;28;20146;-70
2023/10/12 10:06:52;;;;;;;13.30;1.50;;;;;;;;;;5069010;28;20036;-70
2023/10/12 10:09:41;;;;;;;8.88;1.70;;;;;;;;;;5073494;28;20041;-70
2023/10/12 10:12:08;;;;;;;8.07;1.92;;;;;;;;;;5043169;28;20045;-70
2023/10/12 10:14:36;;;;;;;8.48;2.10;;;15.20;99.90;;;;;;5052138;28;20045;-79
2023/10/12 10:17:07;;;;;;;13.20;1.92;;;;;;;;;;5038826;28;20037;-79
2023/10/12 10:19:33;;;;;;;11.70;1.58;;;;;;;;;;5021674;28;20036;-79
2023/10/12 10:22:05;;;;;;;6.32;1.58;;;;;;;;;;5053627;28;20044;-79
2023/10/12 10:24:44;;;;;;;8.20;1.55;;;15.60;99.90;;;;;;5054211;28;20048;-79
2023/10/12 10:27:14;;;;;;;8.70;1.52;;;15.50;99.90;;;;;;5045128;28;20044;-79
2023/10/12 10:29:45;;;;;;;10.80;2.17;;;15.70;99.90;;;;;;5034768;28;20541;-79
2023/10/12 10:32:18;;;;;;;7.55;1.40;;;;;;;;;;5034246;28;20356;-78
2023/10/12 10:34:46;;;;;;;12.18;1.90;;;;;;;;;;5061034;28;20401;-78
2023/10/12 10:37:15;;;;;;;6.70;1.63;;;;;;;;;;5064025;28;20087;-78
2023/10/12 10:39:43;;;;;;;9.80;1.73;;;;;;;;;;5054360;28;20095;-80
2023/10/12 10:42:09;;;;;;;10.13;1.52;;;;;;;;;;5051691;28;20090;-79
2023/10/12 10:44:42;;;;;;;9.38;1.83;;;;;;;;;;5072553;28;20078;-80
2023/10/12 10:47:10;;;;;;;9.18;1.92;;;15.90;99.90;;;;;;5072372;28;20044;-79
2023/10/12 10:49:36;;;;;;;6.10;1.58;;;;;;;;;;5072327;28;20049;-80
2023/10/12 10:54:32;;;;;;;8.30;1.70;;;;;;;;;;5040738;28;20049;-80
2023/10/12 10:56:59;;;;;;;10.82;2.45;;;;;;;;;;5035671;28;20076;-79
2023/10/12 10:59:26;;;;;;;10.48;1.92;;;;;;;;;;5066662;28;20051;-79
2023/10/12 11:01:52;;;;;;;8.52;2.05;;;;;;;;;;5064896;28;20484;-79
2023/10/12 11:07:11;;;;;;;6.78;1.50;;;15.40;99.90;;;;;;5056816;28;20052;-79
2023/10/12 11:10:07;;;;;;;16.50;2.40;;;15.70;99.90;;;;;;5054846;28;20373;-79
2023/10/12 11:12:32;;;;;;;9.07;1.55;;;;;;;;;;5057169;28;20114;-79
2023/10/12 11:15:00;;;;;;;14.27;2.63;;;15.60;99.90;;;;;;5055132;28;20040;-79
2023/10/12 11:17:35;;;;;;;10.10;2.40;;;15.80;99.90;;;;;;5067886;28;20048;-79
2023/10/12 11:20:06;;;;;;;10.10;1.90;;;;;;;;;;5037562;28;20033;-79
2023/10/12 11:22:34;;;;;;;10.00;1.70;;;;;;;;;;5052783;28;20048;-79
2023/10/12 11:25:01;;;;;;;11.25;1.80;;;;;;;;;;5039004;28;20439;-80
2023/10/12 11:27:33;;;;;;;6.32;1.58;;;15.90;99.90;;;;;;5061476;28;20041;-80
2023/10/12 11:30:00;;;;;;;9.07;1.80;;;;;;;;;;5036044;28;20033;-80
2023/10/12 11:32:28;;;;;;;9.05;1.80;;;15.70;99.90;;;;;;5054237;28;20041;-80
2023/10/12 11:34:59;;;;;;;8.93;1.65;;;;;;;;;;5062319;28;20044;-80
2023/10/12 11:37:29;;;;;;;5.07;1.50;;;;;;;;;;5037268;28;20182;-80
2023/10/12 11:39:57;;;;;;;6.22;1.67;;;;;;;;;;5052299;28;20045;-80
2023/10/12 11:42:23;;;;;;;6.18;1.48;;;;;;;;;;5051915;28;20091;-80
2023/10/12 11:44:51;;;;;;;8.25;1.40;;;;;;;;;;5063253;28;20483;-80
2023/10/12 11:47:17;;;;;;;9.88;1.85;;;;;;;;;;5055440;28;20045;-80
2023/10/12 11:49:55;;;;;;;8.32;2.20;;;16.00;99.90;;;;;;5047976;28;20082;-80
2023/10/12 11:52:33;;;;;;;7.00;1.40;;;16.00;99.90;;;;;;5044280;28;20369;-80
2023/10/12 11:55:19;;;;;;;13.18;2.08;;;15.70;99.90;;;;;;5041028;28;20045;-79
2023/10/12 11:57:53;;;;;;;9.25;1.70;;;15.90;99.90;;;;;;5020251;28;20041;-80
2023/10/12 12:00:44;;;;;;;7.78;2.22;;;;;;;;;;5068031;28;20076;-80
2023/10/12 12:03:08;;;;;;;7.50;2.03;;;;;;;;;;5051780;28;20037;-80
2023/10/12 12:05:36;;;;;;;10.05;1.75;;;;;;;;;;5040456;28;20127;-80
2023/10/12 12:08:14;;;;;;;6.93;1.70;;;15.80;99.90;;;;;;5066624;28;20047;-79
2023/10/12 12:13:15;;;;;;;;;;;15.90;99.90;;;;;;5056555;28;20072;-80
2023/10/12 12:15:44;;;;;;;8.13;1.50;;;;;;;;;;5040018;28;20011;-80
2023/10/12 12:18:29;;;;;;;7.55;1.65;;;;;;;;;;5055611;28;20039;-79
2023/10/12 12:20:58;;;;;;;6.80;1.67;;;15.90;99.90;;;;;;5053650;28;20044;-79
2023/10/12 12:23:28;;;;;;;4.65;1.10;;;;;;;;;;5062192;28;20049;-79
2023/10/12 12:26:07;;;;;;;11.18;2.22;;;;;;;;;;5068721;28;20174;-79
2023/10/12 12:28:43;;;;;;;8.43;1.63;;;;;;;;;;5062596;28;20029;-79
2023/10/12 12:31:10;;;;;;;9.27;2.03;;;;;;;;;;5042294;28;20048;-80
2023/10/12 12:33:41;;;;;;;11.43;1.80;;;;;;;;;;5044466;28;20046;-80
2023/10/12 12:36:10;;;;;;;9.38;1.83;;;;;;;;;;5060587;28;20106;-79
2023/10/12 12:41:18;;;;;;;10.82;1.63;;;;;;;;;;5063145;28;20045;-81
2023/10/12 12:43:45;;;;;;;10.13;1.77;;;16.00;99.90;;;;;;5054585;28;20057;-80
2023/10/12 12:46:12;;;;;;;8.73;2.05;;;;;;;;;;5038151;28;20128;-79
2023/10/12 12:48:38;;;;;;;8.60;1.90;;;;;;;;;;5056902;28;20051;-80
2023/10/12 12:51:10;;;;;;;11.07;2.20;;;;;;;;;;5055114;28;20047;-79
2023/10/12 12:53:36;;;;;;;11.25;2.10;;;;;;;;;;5058530;28;20476;-79
2023/10/12 12:56:02;;;;;;;15.73;2.50;;;;;;;;;;5067943;28;20040;-78
2023/10/12 12:58:28;;;;;;;8.77;1.50;;;;;;;;;;5074681;28;20392;-78
2023/10/12 13:00:55;;;;;;;10.50;1.95;;;;;;;;;;5074904;28;20045;-78
2023/10/12 13:03:22;;;;;;;14.10;1.60;;;16.00;99.90;;;;;;5075175;28;20051;-82
2023/10/12 13:05:48;;;;;;;8.93;2.40;;;;;;;;;;5058925;28;20047;-70
2023/10/12 13:08:16;;;;;;;8.05;1.80;;;;;;;;;;5054660;28;20052;-70
2023/10/12 13:10:43;;;;;;;12.07;1.88;;;;;;;;;;5037859;28;20041;-71
2023/10/12 13:13:09;;;;;;;15.50;1.90;;;;;;;;;;5037293;28;20058;-71
2023/10/12 13:15:41;;;;;;;8.48;1.40;;;;;;;;;;5054964;28;20040;-71
2023/10/12 13:18:16;;;;;;;9.75;2.10;;;15.70;99.90;;;;;;5062679;28;20108;-71
2023/10/12 13:20:49;;;;;;;10.38;1.63;;;15.80;99.90;;;;;;5074127;28;20088;-70
2023/10/12 13:23:18;;;;;;;9.02;1.73;;;15.60;99.90;;;;;;5073763;28;20391;-70
2023/10/12 13:25:45;;;;;;;7.07;1.58;;;;;;;;;;5074022;28;20469;-70
2023/10/12 13:28:12;;;;;;;7.88;1.50;;;;;;;;;;5073909;28;20071;-71
2023/10/12 13:30:38;;;;;;;9.38;1.42;;;;;;;;;;5048350;28;20033;-71
2023/10/12 13:33:05;;;;;;;5.70;1.48;;;14.50;99.90;;;;;;5037266;28;20493;-71
2023/10/12 13:35:37;;;;;;;6.03;1.40;;;15.50;99.90;;;;;;5053628;28;20045;-71
2023/10/12 13:38:03;;;;;;;9.52;1.88;;;;;;;;;;5053807;28;20147;-71
2023/10/12 13:40:32;;;;;;;7.13;1.67;;;;;;;;;;5054020;28;20041;-71
2023/10/12 13:43:14;;;;;;;8.40;1.67;;;;;;;;;;5037273;28;20045;-70
2023/10/12 13:45:50;;;;;;;10.15;1.60;;;;;;;;;;5053485;28;20057;-71
2023/10/12 13:48:24;;;;;;;9.07;1.75;;;;;;;;;;5036868;28;20083;-71
2023/10/12 13:50:59;;;;;;;6.50;1.63;;;;;;;;;;5058633;28;20044;-72
2023/10/12 13:53:26;;;;;;;8.90;2.25;;;;;;;;;;5060198;28;20094;-72
2023/10/12 13:55:53;;;;;;;6.85;1.60;;;;;;;;;;5065658;28;20123;-72
2023/10/12 13:58:24;;;;;;;14.40;2.08;;;;;;;;;;5056170;28;20041;-73
2023/10/12 14:00:54;;;;;;;13.13;1.70;;;15.50;99.90;;;;;;5044492;28;20132;-72
2023/10/12 14:03:29;;;;;;;11.35;1.67;;;16.00;99.90;;;;;;5070021;28;20500;-71
2023/10/12 14:05:56;;;;;;;10.23;1.70;;;15.30;99.90;;;;;;5073429;28;20041;-73
2023/10/12 14:08:28;;;;;;;9.20;1.80;;;;;;;;;;5050647;28;20055;-74
2023/10/12 14:11:02;;;;;;;15.20;2.00;;;15.80;99.90;;;;;;5027761;28;20041;-74
2023/10/12 14:13:28;;;;;;;10.52;3.10;;;;;;;;;;5045423;28;20086;-73
2023/10/12 14:15:55;;;;;;;9.25;1.65;;;;;;;;;;5051455;28;20036;-73
2023/10/12 14:18:21;;;;;;;8.20;1.70;;;;;;;;;;5048007;28;20040;-74
2023/10/12 14:20:49;;;;;;;12.55;1.83;;;;;;;;;;5051266;28;20036;-73
2023/10/12 14:23:15;;;;;;;8.18;1.73;;;;;;;;;;5060745;28;20049;-73
2023/10/12 14:25:46;;;;;;;10.18;1.67;;;15.30;99.90;;;;;;5062103;28;20041;-74
2023/10/12 14:28:16;;;;;;;13.25;1.80;;;15.30;99.90;;;;;;5041250;28;20040;-73
2023/10/12 14:30:52;;;;;;;8.57;1.83;;;;;;;;;;5060120;28;20032;-73
2023/10/12 14:33:19;;;;;;;12.30;3.75;;;;;;;;;;5047530;28;20090;-74
2023/10/12 14:35:46;;;;;;;9.00;1.80;;;;;;;;;;5056219;28;20225;-74
2023/10/12 14:38:17;;;;;;;10.15;2.10;;;15.30;99.90;;;;;;5051980;28;20028;-74
2023/10/12 14:40:44;;;;;;;11.85;2.05;;;;;;;;;;5056103;28;20094;-74
2023/10/12 14:43:12;;;;;;;12.60;1.85;;;15.10;99.90;;;;;;5063105;28;20480;-72
2023/10/12 14:46:10;;;;;;;7.40;1.70;;;15.00;99.90;;;;;;5061483;28;20547;-73
2023/10/12 14:48:36;;;;;;;7.85;2.17;;;;;;;;;;5056030;28;20040;-74
2023/10/12 14:51:17;;;;;;;10.85;1.85;;;15.30;99.90;;;;;;5036137;28;20037;-73
2023/10/12 14:53:46;;;;;;;9.63;1.88;;;14.70;99.90;;;;;;5053926;28;20045;-73
2023/10/12 14:56:15;;;;;;;9.82;1.88;;;;;;;;;;5040814;28;20507;-73
2023/10/12 14:58:42;;;;;;;12.50;2.03;;;;;;;;;;5044032;28;20090;-74
2023/10/12 15:01:10;;;;;;;9.52;1.70;;;14.50;99.90;;;;;;5059157;28;20036;-73
2023/10/12 15:03:45;;;;;;;11.23;2.00;;;;;;;;;;5038044;28;20127;-74
2023/10/12 15:06:14;;;;;;;12.85;2.15;;;;;;;;;;5034951;28;20506;-72
2023/10/12 15:08:41;;;;;;;3.42;1.50;;;14.60;99.90;;;;;;5038807;28;20120;-73
2023/10/12 15:11:07;;;;;;;15.23;2.13;;;;;;;;;;5057015;28;20377;-72
2023/10/12 15:13:37;;;;;;;11.98;1.85;;;14.50;99.90;;;;;;5054081;28;20041;-72
2023/10/12 15:16:10;;;;;;;8.25;1.80;;;14.30;99.90;;;;;;5054630;28;20116;-72
2023/10/12 15:18:41;;;;;;;13.25;2.17;;;;;;;;;;5039997;28;20041;-73
2023/10/12 15:21:21;;;;;;;5.82;1.65;;;14.40;99.90;;;;;;5041821;28;20037;-72
2023/10/12 15:23:50;;;;;;;11.00;2.03;;;13.10;99.90;;;;;;5061051;28;20041;-71
2023/10/12 15:26:17;;;;;;;8.25;1.75;;;;;;;;;;5035160;28;20029;-72
2023/10/12 15:28:47;;;;;;;7.80;2.03;;;;;;;;;;5038711;28;20118;-72
2023/10/12 15:31:16;;;;;;;7.72;1.73;;;;;;;;;;5044443;28;20044;-72
2023/10/12 15:33:42;;;;;;;8.90;1.90;;;14.30;99.90;;;;;;5037382;28;20074;-73
2023/10/12 15:36:13;;;;;;;10.60;2.45;;;15.00;99.90;;;;;;5036482;28;20041;-73
2023/10/12 15:38:40;;;;;;;12.85;1.83;;;15.00;99.90;;;;;;5047344;28;20123;-74
2023/10/12 15:41:06;;;;;;;12.18;2.08;;;;;;;;;;5052153;28;20041;-74
2023/10/12 15:43:35;;;;;;;13.98;2.30;;;;;;;;;;5054317;28;20435;-74
2023/10/12 15:46:11;;;;;;;9.35;2.20;;;14.10;99.90;;;;;;5017807;28;20127;-74
2023/10/12 15:48:39;;;;;;;8.90;1.70;;;;;;;;;;5050039;28;20139;-74
2023/10/12 15:51:15;;;;;;;12.65;1.63;;;12.80;99.90;;;;;;5039153;28;20033;-73
2023/10/12 15:53:42;;;;;;;8.48;1.98;;;;;;;;;;5046754;28;20058;-74
2023/10/12 15:56:09;;;;;;;6.28;1.60;;;;;;;;;;5038340;28;20079;-74
2023/10/12 15:58:35;;;;;;;10.45;2.03;;;14.90;99.90;;;;;;5048425;28;20075;-74
2023/10/12 16:01:03;;;;;;;7.82;1.65;;;;;;;;;;5060812;28;20040;-74
2023/10/12 16:03:29;;;;;;;14.70;2.00;;;;;;;;;;5060498;28;20068;-74
2023/10/12 16:05:56;;;;;;;9.10;1.73;;;14.00;99.90;;;;;;5051083;28;20036;-74
2023/10/12 16:08:26;;;;;;;8.60;2.22;;;;;;;;;;5038141;28;20033;-72
2023/10/12 16:10:54;;;;;;;7.47;1.80;;;;;;;;;;5065641;28;20083;-74
2023/10/12 16:13:20;;;;;;;6.28;1.95;;;13.30;99.90;;;;;;5043413;28;20468;-73
2023/10/12 16:15:46;;;;;;;12.10;2.38;;;;;;;;;;5062873;28;20041;-73
2023/10/12 16:18:12;;;;;;;6.18;1.67;;;;;;;;;;5057412;28;20041;-74
2023/10/12 16:20:39;;;;;;;8.55;1.75;;;;;;;;;;5059474;28;20549;-72
2023/10/12 16:23:05;;;;;;;7.53;1.60;;;;;;;;;;5062451;28;20121;-73
2023/10/12 16:25:31;;;;;;;11.90;2.00;;;;;;;;;;5064659;28;20155;-73
2023/10/12 16:27:58;;;;;;;8.13;1.70;;;;;;;;;;5060046;28;20032;-73
2023/10/12 16:30:29;;;;;;;7.00;2.25;;;14.00;99.90;;;;;;5037055;28;20120;-73
2023/10/12 16:32:55;;;;;;;8.25;1.92;;;;;;;;;;5048894;28;20033;-74
2023/10/12 16:35:25;;;;;;;8.60;2.13;;;;;;;;;;5036107;28;20033;-73